sensor_id;sensor_type;location;lat;lon;timestamp;pressure;altitude;pressure_sealevel;temperature;humidity
58471;BME280;44258;51.288;12.068;2022-10-15T00:00:30;99756.16;;;15.67;63.01
58471;BME280;44258;51.288;12.068;2022-10-15T00:02:57;99753.25;;;15.59;63.51
58471;BME280;44258;51.288;12.068;2022-10-15T00:05:24;99760.66;;;15.57;63.67
58471;BME280;44258;51.288;12.068;2022-10-15T00:07:50;99754.44;;;15.66;63.22
58471;BME280;44258;51.288;12.068;2022-10-15T00:10:18;99748.50;;;15.72;63.16
58471;BME280;44258;51.288;12.068;2022-10-15T00:12:44;99744.34;;;15.68;63.30
58471;BME280;44258;51.288;12.068;2022-10-15T00:15:13;99744.91;;;15.71;63.23
58471;BME280;44258;51.288;12.068;2022-10-15T00:17:40;99739.09;;;15.76;62.82
58471;BME280;44258;51.288;12.068;2022-10-15T00:20:09;99730.97;;;15.76;63.04
58471;BME280;44258;51.288;12.068;2022-10-15T00:22:36;99728.81;;;15.80;63.01
58471;BME280;44258;51.288;12.068;2022-10-15T00:25:04;99742.06;;;15.73;63.37
58471;BME280;44258;51.288;12.068;2022-10-15T00:27:32;99733.69;;;15.76;63.17
58471;BME280;44258;51.288;12.068;2022-10-15T00:29:58;99733.38;;;15.79;62.80
58471;BME280;44258;51.288;12.068;2022-10-15T00:32:29;99731.41;;;15.81;62.55
58471;BME280;44258;51.288;12.068;2022-10-15T00:34:55;99729.09;;;15.77;63.02
58471;BME280;44258;51.288;12.068;2022-10-15T00:37:23;99728.50;;;15.73;63.00
58471;BME280;44258;51.288;12.068;2022-10-15T00:39:49;99729.03;;;15.67;63.26
58471;BME280;44258;51.288;12.068;2022-10-15T00:42:16;99735.13;;;15.59;63.68
58471;BME280;44258;51.288;12.068;2022-10-15T00:44:50;99733.53;;;15.57;63.89
58471;BME280;44258;51.288;12.068;2022-10-15T00:47:21;99724.75;;;15.64;64.01
58471;BME280;44258;51.288;12.068;2022-10-15T00:49:56;99724.88;;;15.63;64.20
58471;BME280;44258;51.288;12.068;2022-10-15T00:52:28;99711.81;;;15.68;63.97
58471;BME280;44258;51.288;12.068;2022-10-15T00:54:59;99723.94;;;15.73;63.93
58471;BME280;44258;51.288;12.068;2022-10-15T00:57:29;99715.44;;;15.78;63.55
58471;BME280;44258;51.288;12.068;2022-10-15T00:59:58;99718.25;;;15.77;63.45
58471;BME280;44258;51.288;12.068;2022-10-15T01:02:27;99710.84;;;15.79;63.76
58471;BME280;44258;51.288;12.068;2022-10-15T01:04:55;99707.00;;;15.81;63.89
58471;BME280;44258;51.288;12.068;2022-10-15T01:07:22;99717.19;;;15.89;63.52
58471;BME280;44258;51.288;12.068;2022-10-15T01:09:48;99709.91;;;15.89;63.51
58471;BME280;44258;51.288;12.068;2022-10-15T01:12:21;99709.63;;;15.92;63.75
58471;BME280;44258;51.288;12.068;2022-10-15T01:14:57;99715.78;;;15.94;63.53
58471;BME280;44258;51.288;12.068;2022-10-15T01:17:33;99714.66;;;15.97;63.44
58471;BME280;44258;51.288;12.068;2022-10-15T01:23:19;99711.50;;;16.02;63.53
58471;BME280;44258;51.288;12.068;2022-10-15T01:26:01;99709.81;;;16.01;63.42
58471;BME280;44258;51.288;12.068;2022-10-15T01:28:41;99705.25;;;16.01;63.41
58471;BME280;44258;51.288;12.068;2022-10-15T01:31:20;99700.38;;;15.95;63.36
58471;BME280;44258;51.288;12.068;2022-10-15T01:33:55;99692.53;;;15.92;63.52
58471;BME280;44258;51.288;12.068;2022-10-15T01:36:30;99688.78;;;15.93;63.82
58471;BME280;44258;51.288;12.068;2022-10-15T01:39:00;99678.38;;;15.88;63.45
58471;BME280;44258;51.288;12.068;2022-10-15T01:41:34;99679.47;;;15.86;63.95
58471;BME280;44258;51.288;12.068;2022-10-15T01:44:08;99678.63;;;15.85;63.78
58471;BME280;44258;51.288;12.068;2022-10-15T01:46:41;99685.91;;;15.85;64.03
58471;BME280;44258;51.288;12.068;2022-10-15T01:49:12;99688.94;;;15.91;63.89
58471;BME280;44258;51.288;12.068;2022-10-15T01:51:42;99691.50;;;15.93;63.84
58471;BME280;44258;51.288;12.068;2022-10-15T01:54:13;99676.97;;;15.94;63.74
58471;BME280;44258;51.288;12.068;2022-10-15T01:56:43;99683.97;;;15.97;63.81
58471;BME280;44258;51.288;12.068;2022-10-15T01:59:14;99686.38;;;16.00;63.60
58471;BME280;44258;51.288;12.068;2022-10-15T02:01:44;99686.69;;;15.97;63.89
58471;BME280;44258;51.288;12.068;2022-10-15T02:04:17;99683.13;;;15.96;63.80
58471;BME280;44258;51.288;12.068;2022-10-15T02:06:49;99678.53;;;15.97;63.67
58471;BME280;44258;51.288;12.068;2022-10-15T02:09:24;99685.09;;;15.94;63.77
58471;BME280;44258;51.288;12.068;2022-10-15T02:12:02;99670.22;;;15.88;63.66
58471;BME280;44258;51.288;12.068;2022-10-15T02:14:34;99668.38;;;15.89;63.63
58471;BME280;44258;51.288;12.068;2022-10-15T02:17:08;99655.97;;;15.86;63.89
58471;BME280;44258;51.288;12.068;2022-10-15T02:19:40;99668.06;;;15.82;63.79
58471;BME280;44258;51.288;12.068;2022-10-15T02:22:13;99669.34;;;15.78;64.06
58471;BME280;44258;51.288;12.068;2022-10-15T02:24:45;99661.16;;;15.68;64.30
58471;BME280;44258;51.288;12.068;2022-10-15T02:27:15;99661.41;;;15.65;64.46
58471;BME280;44258;51.288;12.068;2022-10-15T02:29:44;99666.72;;;15.67;64.52
58471;BME280;44258;51.288;12.068;2022-10-15T02:32:14;99660.75;;;15.73;64.32
58471;BME280;44258;51.288;12.068;2022-10-15T02:34:43;99657.63;;;15.78;64.21
58471;BME280;44258;51.288;12.068;2022-10-15T02:37:11;99660.19;;;15.79;64.03
58471;BME280;44258;51.288;12.068;2022-10-15T02:39:38;99651.66;;;15.84;64.00
58471;BME280;44258;51.288;12.068;2022-10-15T02:42:04;99662.81;;;15.90;63.70
58471;BME280;44258;51.288;12.068;2022-10-15T02:44:31;99665.53;;;15.90;63.63
58471;BME280;44258;51.288;12.068;2022-10-15T02:46:58;99658.84;;;15.94;63.49
58471;BME280;44258;51.288;12.068;2022-10-15T02:49:26;99662.88;;;16.00;63.56
58471;BME280;44258;51.288;12.068;2022-10-15T02:51:53;99653.47;;;16.04;63.30
58471;BME280;44258;51.288;12.068;2022-10-15T02:54:20;99650.59;;;16.06;63.27
58471;BME280;44258;51.288;12.068;2022-10-15T02:56:46;99656.88;;;16.06;63.26
58471;BME280;44258;51.288;12.068;2022-10-15T02:59:13;99654.19;;;16.06;63.21
58471;BME280;44258;51.288;12.068;2022-10-15T03:01:40;99650.75;;;16.04;63.12
58471;BME280;44258;51.288;12.068;2022-10-15T03:04:06;99659.84;;;16.03;62.93
58471;BME280;44258;51.288;12.068;2022-10-15T03:06:34;99652.44;;;16.05;63.14
58471;BME280;44258;51.288;12.068;2022-10-15T03:09:01;99659.31;;;16.09;62.82
58471;BME280;44258;51.288;12.068;2022-10-15T03:11:27;99652.19;;;16.08;62.76
58471;BME280;44258;51.288;12.068;2022-10-15T03:13:54;99649.31;;;16.10;62.81
58471;BME280;44258;51.288;12.068;2022-10-15T03:16:21;99649.31;;;16.10;62.86
58471;BME280;44258;51.288;12.068;2022-10-15T03:18:48;99649.03;;;16.13;62.84
58471;BME280;44258;51.288;12.068;2022-10-15T03:21:15;99649.91;;;16.13;62.69
58471;BME280;44258;51.288;12.068;2022-10-15T03:23:43;99641.50;;;16.17;62.61
58471;BME280;44258;51.288;12.068;2022-10-15T03:26:09;99642.78;;;16.22;62.63
58471;BME280;44258;51.288;12.068;2022-10-15T03:28:36;99638.06;;;16.24;62.44
58471;BME280;44258;51.288;12.068;2022-10-15T03:31:03;99646.19;;;16.24;62.43
58471;BME280;44258;51.288;12.068;2022-10-15T03:33:29;99645.09;;;16.27;62.35
58471;BME280;44258;51.288;12.068;2022-10-15T03:35:56;99649.63;;;16.26;62.37
58471;BME280;44258;51.288;12.068;2022-10-15T03:38:23;99648.19;;;16.22;62.36
58471;BME280;44258;51.288;12.068;2022-10-15T03:40:51;99648.50;;;16.19;62.50
58471;BME280;44258;51.288;12.068;2022-10-15T03:43:17;99647.34;;;16.22;62.25
58471;BME280;44258;51.288;12.068;2022-10-15T03:45:44;99651.91;;;16.21;62.20
58471;BME280;44258;51.288;12.068;2022-10-15T03:48:11;99645.66;;;16.21;62.19
58471;BME280;44258;51.288;12.068;2022-10-15T03:50:37;99645.91;;;16.18;62.27
58471;BME280;44258;51.288;12.068;2022-10-15T03:53:04;99639.63;;;16.17;62.26
58471;BME280;44258;51.288;12.068;2022-10-15T03:55:31;99645.66;;;16.21;62.29
58471;BME280;44258;51.288;12.068;2022-10-15T03:57:59;99639.50;;;16.19;62.12
58471;BME280;44258;51.288;12.068;2022-10-15T04:00:27;99636.91;;;16.17;62.19
58471;BME280;44258;51.288;12.068;2022-10-15T04:02:53;99632.47;;;16.16;62.38
58471;BME280;44258;51.288;12.068;2022-10-15T04:05:20;99631.91;;;16.12;62.13
58471;BME280;44258;51.288;12.068;2022-10-15T04:07:47;99633.91;;;16.10;62.39
58471;BME280;44258;51.288;12.068;2022-10-15T04:10:13;99625.88;;;15.99;62.66
58471;BME280;44258;51.288;12.068;2022-10-15T04:12:40;99622.16;;;15.90;62.98
58471;BME280;44258;51.288;12.068;2022-10-15T04:15:09;99628.44;;;15.91;63.01
58471;BME280;44258;51.288;12.068;2022-10-15T04:17:35;99628.00;;;15.95;62.64
58471;BME280;44258;51.288;12.068;2022-10-15T04:20:02;99620.47;;;15.99;62.58
58471;BME280;44258;51.288;12.068;2022-10-15T04:22:29;99621.31;;;16.00;62.65
58471;BME280;44258;51.288;12.068;2022-10-15T04:24:56;99617.63;;;16.01;62.60
58471;BME280;44258;51.288;12.068;2022-10-15T04:27:22;99609.44;;;15.91;62.49
58471;BME280;44258;51.288;12.068;2022-10-15T04:29:49;99608.44;;;15.82;62.81
58471;BME280;44258;51.288;12.068;2022-10-15T04:32:17;99613.25;;;15.79;63.09
58471;BME280;44258;51.288;12.068;2022-10-15T04:34:45;99616.28;;;15.85;62.87
58471;BME280;44258;51.288;12.068;2022-10-15T04:37:11;99619.44;;;15.90;62.71
58471;BME280;44258;51.288;12.068;2022-10-15T04:39:38;99624.72;;;15.92;62.59
58471;BME280;44258;51.288;12.068;2022-10-15T04:42:05;99624.00;;;15.90;62.50
58471;BME280;44258;51.288;12.068;2022-10-15T04:44:31;99629.16;;;15.93;62.58
58471;BME280;44258;51.288;12.068;2022-10-15T04:46:58;99627.44;;;15.92;62.57
58471;BME280;44258;51.288;12.068;2022-10-15T04:49:26;99626.84;;;15.88;62.44
58471;BME280;44258;51.288;12.068;2022-10-15T04:51:52;99633.00;;;15.90;62.51
58471;BME280;44258;51.288;12.068;2022-10-15T04:54:19;99638.13;;;15.93;62.42
58471;BME280;44258;51.288;12.068;2022-10-15T04:56:46;99641.56;;;15.95;62.47
58471;BME280;44258;51.288;12.068;2022-10-15T04:59:12;99643.28;;;15.97;62.41
58471;BME280;44258;51.288;12.068;2022-10-15T05:01:39;99638.00;;;15.95;62.36
58471;BME280;44258;51.288;12.068;2022-10-15T05:04:05;99634.16;;;15.98;62.47
58471;BME280;44258;51.288;12.068;2022-10-15T05:06:35;99628.72;;;15.98;62.47
58471;BME280;44258;51.288;12.068;2022-10-15T05:09:01;99629.72;;;15.97;62.60
58471;BME280;44258;51.288;12.068;2022-10-15T05:11:28;99628.88;;;15.96;62.56
58471;BME280;44258;51.288;12.068;2022-10-15T05:13:55;99611.72;;;15.95;62.61
58471;BME280;44258;51.288;12.068;2022-10-15T05:16:24;99623.84;;;15.91;62.64
58471;BME280;44258;51.288;12.068;2022-10-15T05:18:54;99609.88;;;15.86;62.72
58471;BME280;44258;51.288;12.068;2022-10-15T05:21:21;99617.28;;;15.84;62.62
58471;BME280;44258;51.288;12.068;2022-10-15T05:23:49;99627.97;;;15.86;62.65
58471;BME280;44258;51.288;12.068;2022-10-15T05:26:19;99622.03;;;15.92;62.61
58471;BME280;44258;51.288;12.068;2022-10-15T05:28:47;99620.75;;;15.96;62.40
58471;BME280;44258;51.288;12.068;2022-10-15T05:31:17;99620.75;;;15.96;62.54
58471;BME280;44258;51.288;12.068;2022-10-15T05:33:44;99622.03;;;16.02;62.51
58471;BME280;44258;51.288;12.068;2022-10-15T05:36:12;99633.03;;;16.00;62.30
58471;BME280;44258;51.288;12.068;2022-10-15T05:38:41;99626.72;;;16.00;62.50
58471;BME280;44258;51.288;12.068;2022-10-15T05:41:10;99629.72;;;15.97;62.35
58471;BME280;44258;51.288;12.068;2022-10-15T05:43:36;99629.16;;;15.93;62.33
58471;BME280;44258;51.288;12.068;2022-10-15T05:46:03;99628.00;;;15.95;62.63
58471;BME280;44258;51.288;12.068;2022-10-15T05:48:30;99634.00;;;15.99;62.47
58471;BME280;44258;51.288;12.068;2022-10-15T05:51:00;99640.28;;;16.00;62.49
58471;BME280;44258;51.288;12.068;2022-10-15T05:53:27;99654.44;;;16.03;62.21
58471;BME280;44258;51.288;12.068;2022-10-15T05:55:54;99652.44;;;16.05;62.31
58471;BME280;44258;51.288;12.068;2022-10-15T05:58:22;99648.16;;;16.03;62.35
58471;BME280;44258;51.288;12.068;2022-10-15T06:00:52;99647.69;;;15.98;62.68
58471;BME280;44258;51.288;12.068;2022-10-15T06:03:19;99647.03;;;16.05;62.42
58471;BME280;44258;51.288;12.068;2022-10-15T06:05:46;99653.63;;;16.12;62.18
58471;BME280;44258;51.288;12.068;2022-10-15T06:08:12;99648.91;;;16.14;62.13
58471;BME280;44258;51.288;12.068;2022-10-15T06:10:39;99656.75;;;16.18;62.13
58471;BME280;44258;51.288;12.068;2022-10-15T06:13:06;99654.50;;;16.23;61.87
58471;BME280;44258;51.288;12.068;2022-10-15T06:15:37;99663.50;;;16.23;61.94
58471;BME280;44258;51.288;12.068;2022-10-15T06:18:04;99657.53;;;16.29;61.92
58471;BME280;44258;51.288;12.068;2022-10-15T06:20:31;99669.97;;;16.32;61.58
58471;BME280;44258;51.288;12.068;2022-10-15T06:22:58;99670.81;;;16.32;61.59
58471;BME280;44258;51.288;12.068;2022-10-15T06:25:25;99675.13;;;16.35;61.69
58471;BME280;44258;51.288;12.068;2022-10-15T06:27:52;99665.13;;;16.36;61.55
58471;BME280;44258;51.288;12.068;2022-10-15T06:30:19;99658.97;;;16.33;61.60
58471;BME280;44258;51.288;12.068;2022-10-15T06:32:48;99662.66;;;16.32;61.81
58471;BME280;44258;51.288;12.068;2022-10-15T06:35:15;99658.47;;;16.28;61.96
58471;BME280;44258;51.288;12.068;2022-10-15T06:37:42;99657.34;;;16.21;62.52
58471;BME280;44258;51.288;12.068;2022-10-15T06:40:09;99666.19;;;16.23;62.39
58471;BME280;44258;51.288;12.068;2022-10-15T06:42:36;99671.88;;;16.20;62.57
58471;BME280;44258;51.288;12.068;2022-10-15T06:45:03;99675.78;;;16.27;62.59
58471;BME280;44258;51.288;12.068;2022-10-15T06:47:30;99675.06;;;16.25;62.68
58471;BME280;44258;51.288;12.068;2022-10-15T06:49:58;99685.06;;;16.25;62.59
58471;BME280;44258;51.288;12.068;2022-10-15T06:52:25;99680.94;;;16.30;62.52
58471;BME280;44258;51.288;12.068;2022-10-15T06:54:51;99693.34;;;16.23;62.69
58471;BME280;44258;51.288;12.068;2022-10-15T06:57:18;99701.38;;;16.34;62.66
58471;BME280;44258;51.288;12.068;2022-10-15T06:59:45;99697.00;;;16.43;62.41
58471;BME280;44258;51.288;12.068;2022-10-15T07:02:12;99697.41;;;16.48;62.03
58471;BME280;44258;51.288;12.068;2022-10-15T07:04:39;99701.44;;;16.54;61.88
58471;BME280;44258;51.288;12.068;2022-10-15T07:07:07;99709.31;;;16.57;61.94
58471;BME280;44258;51.288;12.068;2022-10-15T07:09:33;99722.59;;;16.60;61.63
58471;BME280;44258;51.288;12.068;2022-10-15T07:12:01;99715.16;;;16.62;61.58
58471;BME280;44258;51.288;12.068;2022-10-15T07:14:28;99714.59;;;16.68;61.75
58471;BME280;44258;51.288;12.068;2022-10-15T07:16:58;99709.16;;;16.68;61.57
58471;BME280;44258;51.288;12.068;2022-10-15T07:19:24;99722.75;;;16.78;61.29
58471;BME280;44258;51.288;12.068;2022-10-15T07:21:52;99719.47;;;16.84;61.32
58471;BME280;44258;51.288;12.068;2022-10-15T07:24:20;99722.59;;;16.89;61.42
58471;BME280;44258;51.288;12.068;2022-10-15T07:26:47;99726.47;;;16.97;61.00
58471;BME280;44258;51.288;12.068;2022-10-15T07:29:14;99729.34;;;16.95;61.30
58471;BME280;44258;51.288;12.068;2022-10-15T07:31:41;99730.91;;;16.88;60.98
58471;BME280;44258;51.288;12.068;2022-10-15T07:34:07;99731.91;;;16.87;60.95
58471;BME280;44258;51.288;12.068;2022-10-15T07:36:34;99714.03;;;16.84;61.08
58471;BME280;44258;51.288;12.068;2022-10-15T07:39:01;99707.91;;;16.92;61.27
58471;BME280;44258;51.288;12.068;2022-10-15T07:41:29;99718.03;;;17.00;61.08
58471;BME280;44258;51.288;12.068;2022-10-15T07:43:56;99718.03;;;17.09;60.96
58471;BME280;44258;51.288;12.068;2022-10-15T07:46:22;99716.47;;;17.07;60.63
58471;BME280;44258;51.288;12.068;2022-10-15T07:48:49;99727.50;;;16.86;61.11
58471;BME280;44258;51.288;12.068;2022-10-15T07:51:16;99732.78;;;16.97;61.20
58471;BME280;44258;51.288;12.068;2022-10-15T07:53:42;99737.75;;;17.02;61.12
58471;BME280;44258;51.288;12.068;2022-10-15T07:56:10;99734.19;;;17.01;61.25
58471;BME280;44258;51.288;12.068;2022-10-15T07:58:39;99726.34;;;16.98;60.78
58471;BME280;44258;51.288;12.068;2022-10-15T08:01:07;99722.63;;;16.99;61.28
58471;BME280;44258;51.288;12.068;2022-10-15T08:03:34;99727.78;;;17.02;61.47
58471;BME280;44258;51.288;12.068;2022-10-15T08:06:01;99725.19;;;17.01;61.17
58471;BME280;44258;51.288;12.068;2022-10-15T08:08:28;99726.75;;;17.03;61.16
58471;BME280;44258;51.288;12.068;2022-10-15T08:10:55;99720.63;;;17.01;61.25
58471;BME280;44258;51.288;12.068;2022-10-15T08:13:22;99718.34;;;17.06;61.13
58471;BME280;44258;51.288;12.068;2022-10-15T08:15:50;99729.34;;;17.05;61.16
58471;BME280;44258;51.288;12.068;2022-10-15T08:18:17;99734.91;;;17.03;61.00
58471;BME280;44258;51.288;12.068;2022-10-15T08:20:43;99735.63;;;17.05;61.14
58471;BME280;44258;51.288;12.068;2022-10-15T08:23:13;99734.34;;;17.09;61.03
58471;BME280;44258;51.288;12.068;2022-10-15T08:25:40;99734.06;;;17.12;60.75
58471;BME280;44258;51.288;12.068;2022-10-15T08:28:07;99744.34;;;17.09;60.76
58471;BME280;44258;51.288;12.068;2022-10-15T08:30:34;99755.09;;;17.20;60.89
58471;BME280;44258;51.288;12.068;2022-10-15T08:33:03;99750.81;;;17.27;60.66
58471;BME280;44258;51.288;12.068;2022-10-15T08:35:29;99760.09;;;17.44;60.56
58471;BME280;44258;51.288;12.068;2022-10-15T08:38:00;99752.06;;;17.52;60.47
58471;BME280;44258;51.288;12.068;2022-10-15T08:40:27;99753.81;;;17.53;60.31
58471;BME280;44258;51.288;12.068;2022-10-15T08:42:54;99760.22;;;17.52;60.44
58471;BME280;44258;51.288;12.068;2022-10-15T08:45:26;99761.25;;;17.51;60.42
58471;BME280;44258;51.288;12.068;2022-10-15T08:47:56;99762.66;;;17.56;60.41
58471;BME280;44258;51.288;12.068;2022-10-15T08:50:35;99767.09;;;17.66;60.33
58471;BME280;44258;51.288;12.068;2022-10-15T08:53:03;99768.63;;;17.79;59.80
58471;BME280;44258;51.288;12.068;2022-10-15T08:55:34;99783.06;;;17.79;59.67
58471;BME280;44258;51.288;12.068;2022-10-15T08:58:05;99779.50;;;17.79;59.56
58471;BME280;44258;51.288;12.068;2022-10-15T09:00:42;99780.22;;;17.71;59.87
58471;BME280;44258;51.288;12.068;2022-10-15T09:03:30;99777.38;;;17.63;59.65
58471;BME280;44258;51.288;12.068;2022-10-15T09:06:06;99776.84;;;17.59;59.66
58471;BME280;44258;51.288;12.068;2022-10-15T09:08:40;99783.25;;;17.68;59.69
58471;BME280;44258;51.288;12.068;2022-10-15T09:11:16;99781.94;;;17.82;59.55
58471;BME280;44258;51.288;12.068;2022-10-15T09:13:45;99782.91;;;18.00;59.50
58471;BME280;44258;51.288;12.068;2022-10-15T09:16:15;99793.34;;;18.14;59.49
58471;BME280;44258;51.288;12.068;2022-10-15T09:18:45;99786.13;;;18.23;58.72
58471;BME280;44258;51.288;12.068;2022-10-15T09:21:14;99796.44;;;18.29;58.27
58471;BME280;44258;51.288;12.068;2022-10-15T09:23:42;99795.56;;;18.29;58.18
58471;BME280;44258;51.288;12.068;2022-10-15T09:26:21;99798.59;;;18.26;58.36
58471;BME280;44258;51.288;12.068;2022-10-15T09:28:53;99800.16;;;18.28;58.22
58471;BME280;44258;51.288;12.068;2022-10-15T09:31:24;99791.31;;;18.17;57.82
58471;BME280;44258;51.288;12.068;2022-10-15T09:33:56;99797.34;;;18.01;57.58
58471;BME280;44258;51.288;12.068;2022-10-15T09:36:35;99797.53;;;17.89;57.37
58471;BME280;44258;51.288;12.068;2022-10-15T09:39:14;99806.69;;;17.88;57.43
58471;BME280;44258;51.288;12.068;2022-10-15T09:41:49;99805.84;;;17.88;57.82
58471;BME280;44258;51.288;12.068;2022-10-15T09:44:23;99806.94;;;17.95;57.95
58471;BME280;44258;51.288;12.068;2022-10-15T09:46:50;99805.06;;;18.05;57.84
58471;BME280;44258;51.288;12.068;2022-10-15T09:49:20;99796.75;;;18.07;57.52
58471;BME280;44258;51.288;12.068;2022-10-15T09:51:56;99802.47;;;18.23;57.73
58471;BME280;44258;51.288;12.068;2022-10-15T09:54:30;99792.50;;;18.42;57.17
58471;BME280;44258;51.288;12.068;2022-10-15T09:57:01;99797.56;;;18.64;56.80
58471;BME280;44258;51.288;12.068;2022-10-15T09:59:28;99792.66;;;18.68;56.27
58471;BME280;44258;51.288;12.068;2022-10-15T10:01:58;99791.78;;;18.77;56.42
58471;BME280;44258;51.288;12.068;2022-10-15T10:04:26;99793.47;;;18.78;55.96
58471;BME280;44258;51.288;12.068;2022-10-15T10:06:56;99804.16;;;18.62;56.05
58471;BME280;44258;51.288;12.068;2022-10-15T10:09:26;99799.19;;;18.57;55.66
58471;BME280;44258;51.288;12.068;2022-10-15T10:11:57;99806.03;;;18.61;55.79
58471;BME280;44258;51.288;12.068;2022-10-15T10:14:27;99809.16;;;18.66;55.66
58471;BME280;44258;51.288;12.068;2022-10-15T10:17:06;99810.19;;;18.65;55.87
58471;BME280;44258;51.288;12.068;2022-10-15T10:19:33;99810.97;;;18.76;55.94
58471;BME280;44258;51.288;12.068;2022-10-15T10:22:12;99809.56;;;18.71;55.88
58471;BME280;44258;51.288;12.068;2022-10-15T10:24:39;99813.47;;;18.87;55.67
58471;BME280;44258;51.288;12.068;2022-10-15T10:27:17;99811.25;;;18.72;55.60
58471;BME280;44258;51.288;12.068;2022-10-15T10:29:48;99804.34;;;18.78;55.74
58471;BME280;44258;51.288;12.068;2022-10-15T10:32:20;99809.53;;;18.81;56.05
58471;BME280;44258;51.288;12.068;2022-10-15T10:34:48;99805.72;;;18.92;55.62
58471;BME280;44258;51.288;12.068;2022-10-15T10:37:17;99816.41;;;19.03;55.76
58471;BME280;44258;51.288;12.068;2022-10-15T10:39:44;99809.34;;;19.10;55.12
58471;BME280;44258;51.288;12.068;2022-10-15T10:42:38;99808.50;;;19.10;54.98
58471;BME280;44258;51.288;12.068;2022-10-15T10:45:26;99811.53;;;19.07;54.83
58471;BME280;44258;51.288;12.068;2022-10-15T10:47:54;99810.19;;;19.11;55.41
58471;BME280;44258;51.288;12.068;2022-10-15T10:50:29;99804.19;;;19.07;55.16
58471;BME280;44258;51.288;12.068;2022-10-15T10:53:10;99806.63;;;19.10;54.60
58471;BME280;44258;51.288;12.068;2022-10-15T10:55:40;99797.34;;;19.03;54.35
58471;BME280;44258;51.288;12.068;2022-10-15T10:58:14;99813.88;;;18.92;54.98
58471;BME280;44258;51.288;12.068;2022-10-15T11:00:44;99817.78;;;18.89;55.29
58471;BME280;44258;51.288;12.068;2022-10-15T11:03:22;99811.53;;;18.79;55.26
58471;BME280;44258;51.288;12.068;2022-10-15T11:05:58;99818.91;;;18.97;55.19
58471;BME280;44258;51.288;12.068;2022-10-15T11:08:34;99826.09;;;18.98;55.17
58471;BME280;44258;51.288;12.068;2022-10-15T11:11:09;99825.06;;;18.99;54.87
58471;BME280;44258;51.288;12.068;2022-10-15T11:13:51;99821.47;;;18.98;55.14
58471;BME280;44258;51.288;12.068;2022-10-15T11:16:27;99816.75;;;19.00;54.69
58471;BME280;44258;51.288;12.068;2022-10-15T11:19:06;99824.91;;;19.00;54.80
58471;BME280;44258;51.288;12.068;2022-10-15T11:21:42;99824.34;;;18.97;55.21
58471;BME280;44258;51.288;12.068;2022-10-15T11:24:14;99821.19;;;19.19;54.43
58471;BME280;44258;51.288;12.068;2022-10-15T11:27:01;99821.81;;;19.13;54.83
58471;BME280;44258;51.288;12.068;2022-10-15T11:29:34;99817.38;;;19.12;54.20
58471;BME280;44258;51.288;12.068;2022-10-15T11:32:16;99821.59;;;19.24;54.57
58471;BME280;44258;51.288;12.068;2022-10-15T11:35:00;99825.66;;;19.20;54.00
58471;BME280;44258;51.288;12.068;2022-10-15T11:37:34;99829.94;;;19.41;53.85
58471;BME280;44258;51.288;12.068;2022-10-15T11:40:19;99827.34;;;19.21;54.12
58471;BME280;44258;51.288;12.068;2022-10-15T11:42:52;99830.31;;;19.10;54.17
58471;BME280;44258;51.288;12.068;2022-10-15T11:45:43;99826.31;;;19.04;54.66
58471;BME280;44258;51.288;12.068;2022-10-15T11:48:24;99819.56;;;19.08;54.04
58471;BME280;44258;51.288;12.068;2022-10-15T11:51:02;99819.88;;;19.23;54.55
58471;BME280;44258;51.288;12.068;2022-10-15T11:53:54;99827.03;;;19.06;54.64
58471;BME280;44258;51.288;12.068;2022-10-15T11:56:26;99819.22;;;19.11;53.84
58471;BME280;44258;51.288;12.068;2022-10-15T11:58:58;99820.47;;;18.99;53.97
58471;BME280;44258;51.288;12.068;2022-10-15T12:01:30;99820.63;;;19.16;54.00
58471;BME280;44258;51.288;12.068;2022-10-15T12:04:01;99815.50;;;19.12;53.86
58471;BME280;44258;51.288;12.068;2022-10-15T12:06:33;99823.06;;;19.19;53.99
58471;BME280;44258;51.288;12.068;2022-10-15T12:09:02;99808.34;;;19.29;53.82
58471;BME280;44258;51.288;12.068;2022-10-15T12:11:39;99810.91;;;19.31;53.88
58471;BME280;44258;51.288;12.068;2022-10-15T12:14:16;99797.91;;;19.25;53.73
58471;BME280;44258;51.288;12.068;2022-10-15T12:16:49;99793.31;;;19.43;53.48
58471;BME280;44258;51.288;12.068;2022-10-15T12:19:21;99788.97;;;19.50;53.26
58471;BME280;44258;51.288;12.068;2022-10-15T12:22:03;99793.44;;;19.60;53.17
58471;BME280;44258;51.288;12.068;2022-10-15T12:24:50;99792.69;;;19.49;53.78
58471;BME280;44258;51.288;12.068;2022-10-15T12:27:28;99789.66;;;19.52;53.15
58471;BME280;44258;51.288;12.068;2022-10-15T12:30:19;99780.59;;;19.52;52.72
58471;BME280;44258;51.288;12.068;2022-10-15T12:32:47;99768.53;;;19.54;53.15
58471;BME280;44258;51.288;12.068;2022-10-15T12:35:21;99761.56;;;19.60;52.93
58471;BME280;44258;51.288;12.068;2022-10-15T12:37:49;99766.09;;;19.51;52.53
58471;BME280;44258;51.288;12.068;2022-10-15T12:40:25;99784.06;;;19.36;52.22
58471;BME280;44258;51.288;12.068;2022-10-15T12:42:55;99784.44;;;19.23;52.47
58471;BME280;44258;51.288;12.068;2022-10-15T12:45:35;99778.53;;;19.28;52.63
58471;BME280;44258;51.288;12.068;2022-10-15T12:48:33;99773.59;;;19.13;53.12
58471;BME280;44258;51.288;12.068;2022-10-15T12:51:28;99772.69;;;19.23;52.66
58471;BME280;44258;51.288;12.068;2022-10-15T12:53:55;99776.25;;;19.23;52.98
58471;BME280;44258;51.288;12.068;2022-10-15T12:56:36;99766.59;;;19.11;53.14
58471;BME280;44258;51.288;12.068;2022-10-15T12:59:27;99771.28;;;19.19;52.93
58471;BME280;44258;51.288;12.068;2022-10-15T13:01:55;99780.00;;;19.22;52.67
58471;BME280;44258;51.288;12.068;2022-10-15T13:04:22;99778.84;;;19.25;52.86
58471;BME280;44258;51.288;12.068;2022-10-15T13:06:49;99784.13;;;19.26;52.90
58471;BME280;44258;51.288;12.068;2022-10-15T13:09:26;99786.78;;;19.36;53.04